createdAt,value
2019-03-20T00:00:26.221Z,958.25
2019-03-20T00:01:25.820Z,958.26
2019-03-20T00:02:25.719Z,958.28
2019-03-20T00:03:25.614Z,958.25
2019-03-20T00:04:25.535Z,958.29
2019-03-20T00:05:25.409Z,958.30
2019-03-20T00:06:25.310Z,958.32
2019-03-20T00:07:25.214Z,958.29
2019-03-20T00:08:25.106Z,958.32
2019-03-20T00:09:25.020Z,958.31
2019-03-20T00:10:24.896Z,958.33
2019-03-20T00:11:24.793Z,958.35
2019-03-20T00:12:24.697Z,958.37
2019-03-20T00:13:24.586Z,958.39
2019-03-20T00:14:24.609Z,958.40
2019-03-20T00:15:24.383Z,958.41
2019-03-20T00:16:24.323Z,958.38
2019-03-20T00:17:24.176Z,958.38
2019-03-20T00:18:24.074Z,958.36
2019-03-20T00:19:23.987Z,958.41
2019-03-20T00:20:23.869Z,958.40
2019-03-20T00:21:23.895Z,958.38
2019-03-20T00:22:23.664Z,958.38
2019-03-20T00:23:23.563Z,958.36
2019-03-20T00:24:23.478Z,958.39
2019-03-20T00:25:23.355Z,958.39
2019-03-20T00:26:23.254Z,958.45
2019-03-20T00:27:23.156Z,958.42
2019-03-20T00:28:23.158Z,958.42
2019-03-20T00:29:22.962Z,958.43
2019-03-20T00:30:22.844Z,958.43
2019-03-20T00:31:22.740Z,958.45
2019-03-20T00:32:22.637Z,958.45
2019-03-20T00:33:22.534Z,958.38
2019-03-20T00:34:22.448Z,958.45
2019-03-20T00:35:22.437Z,958.43
2019-03-20T00:36:22.227Z,958.46
2019-03-20T00:37:22.123Z,958.41
2019-03-20T00:38:22.022Z,958.43
2019-03-20T00:39:21.941Z,958.47
2019-03-20T00:40:21.819Z,958.45
2019-03-20T00:41:21.714Z,958.44
2019-03-20T00:42:21.720Z,958.46
2019-03-20T00:43:21.509Z,958.43
2019-03-20T00:44:21.424Z,958.42
2019-03-20T00:45:21.316Z,958.44
2019-03-20T00:46:21.202Z,958.44
2019-03-20T00:47:21.101Z,958.43
2019-03-20T00:48:21.000Z,958.39
2019-03-20T00:49:21.013Z,958.37
2019-03-20T00:50:20.801Z,958.34
2019-03-20T00:51:20.691Z,958.40
2019-03-20T00:52:20.594Z,958.36
2019-03-20T00:53:20.484Z,958.40
2019-03-20T00:54:20.406Z,958.40
2019-03-20T00:55:20.283Z,958.40
2019-03-20T00:56:20.283Z,958.38
2019-03-20T00:57:20.074Z,958.39
2019-03-20T00:58:19.972Z,958.36
2019-03-20T00:59:19.886Z,958.37
2019-03-20T01:00:19.787Z,958.40
2019-03-20T01:01:19.667Z,958.35
2019-03-20T01:02:19.566Z,958.44
2019-03-20T01:03:19.570Z,958.42
2019-03-20T01:04:19.367Z,958.40
2019-03-20T01:05:19.277Z,958.41
2019-03-20T01:06:19.158Z,958.41
2019-03-20T01:07:19.051Z,958.41
2019-03-20T01:08:18.950Z,958.39
2019-03-20T01:09:18.850Z,958.40
2019-03-20T01:10:18.892Z,958.38
2019-03-20T01:11:18.645Z,958.37
2019-03-20T01:12:18.544Z,958.40
2019-03-20T01:13:18.439Z,958.35
2019-03-20T01:14:18.346Z,958.33
2019-03-20T01:15:18.250Z,958.33
2019-03-20T01:16:18.133Z,958.31
2019-03-20T01:17:18.134Z,958.39
2019-03-20T01:18:17.930Z,958.31
2019-03-20T01:19:17.830Z,958.32
2019-03-20T01:20:17.746Z,958.34
2019-03-20T01:21:17.620Z,958.38
2019-03-20T01:22:17.522Z,958.36
2019-03-20T01:23:17.545Z,958.39
2019-03-20T01:24:17.314Z,958.37
2019-03-20T01:25:17.228Z,958.39
2019-03-20T01:26:17.112Z,958.41
2019-03-20T01:27:17.012Z,958.37
2019-03-20T01:28:16.906Z,958.41
2019-03-20T01:29:16.803Z,958.40
2019-03-20T01:30:16.717Z,958.40
2019-03-20T01:31:16.704Z,958.45
2019-03-20T01:32:16.499Z,958.45
2019-03-20T01:33:16.395Z,958.42
2019-03-20T01:34:16.482Z,958.40
2019-03-20T01:35:23.891Z,958.43
2019-03-20T01:36:16.112Z,958.42
2019-03-20T01:37:15.986Z,958.46
2019-03-20T01:38:15.996Z,958.45
2019-03-20T01:39:15.790Z,958.44
2019-03-20T01:40:15.699Z,958.41
2019-03-20T01:41:15.580Z,958.40
2019-03-20T01:42:15.479Z,958.41
2019-03-20T01:43:15.375Z,958.40
2019-03-20T01:44:15.404Z,958.39
2019-03-20T01:45:15.298Z,958.39
2019-03-20T01:46:15.071Z,958.39
2019-03-20T01:47:14.969Z,958.41
2019-03-20T01:48:14.875Z,958.44
2019-03-20T01:49:14.760Z,958.47
2019-03-20T01:50:14.678Z,958.47
2019-03-20T01:51:14.561Z,958.46
2019-03-20T01:52:14.491Z,958.47
2019-03-20T01:53:14.357Z,958.43
2019-03-20T01:54:14.257Z,958.45
2019-03-20T01:55:14.167Z,958.43
2019-03-20T01:56:14.053Z,958.46
2019-03-20T01:57:13.946Z,958.44
2019-03-20T01:58:13.846Z,958.45
2019-03-20T01:59:13.747Z,958.45
2019-03-20T02:00:13.658Z,958.46
2019-03-20T02:01:13.538Z,958.48
2019-03-20T02:02:13.438Z,958.44
2019-03-20T02:03:13.335Z,958.46
2019-03-20T02:04:13.238Z,958.44
2019-03-20T02:05:13.148Z,958.44
2019-03-20T02:06:13.029Z,958.46
2019-03-20T02:07:12.926Z,958.47
2019-03-20T02:08:12.825Z,958.48
2019-03-20T02:09:12.722Z,958.47
2019-03-20T02:10:12.638Z,958.49
2019-03-20T02:11:12.519Z,958.47
2019-03-20T02:12:12.421Z,958.49
2019-03-20T02:13:12.315Z,958.47
2019-03-20T02:14:12.216Z,958.50
2019-03-20T02:15:12.134Z,958.45
2019-03-20T02:16:12.010Z,958.44
2019-03-20T02:17:11.905Z,958.44
2019-03-20T02:18:11.806Z,958.45
2019-03-20T02:19:11.703Z,958.45
2019-03-20T02:20:11.621Z,958.44
2019-03-20T02:21:11.500Z,958.50
2019-03-20T02:22:11.399Z,958.51
2019-03-20T02:23:11.297Z,958.52
2019-03-20T02:24:11.200Z,958.54
2019-03-20T02:25:11.112Z,958.58
2019-03-20T02:26:10.991Z,958.52
2019-03-20T02:27:10.890Z,958.55
2019-03-20T02:28:10.788Z,958.55
2019-03-20T02:29:10.683Z,958.55
2019-03-20T02:30:10.601Z,958.56
2019-03-20T02:31:10.478Z,958.56
2019-03-20T02:32:10.394Z,958.56
2019-03-20T02:33:10.282Z,958.55
2019-03-20T02:34:10.172Z,958.58
2019-03-20T02:35:10.088Z,958.56
2019-03-20T02:36:09.971Z,958.57
2019-03-20T02:37:09.871Z,958.55
2019-03-20T02:38:09.769Z,958.61
2019-03-20T02:39:09.663Z,958.60
2019-03-20T02:40:09.580Z,958.58
2019-03-20T02:41:09.464Z,958.59
2019-03-20T02:42:09.355Z,958.56
2019-03-20T02:43:09.252Z,958.56
2019-03-20T02:44:09.150Z,958.58
2019-03-20T02:45:09.065Z,958.60
2019-03-20T02:46:08.949Z,958.60
2019-03-20T02:47:08.842Z,958.56
2019-03-20T02:48:08.747Z,958.55
2019-03-20T02:49:08.636Z,958.53
2019-03-20T02:50:08.535Z,958.58
2019-03-20T02:51:08.447Z,958.53
2019-03-20T02:52:08.332Z,958.52
2019-03-20T02:53:08.226Z,958.54
2019-03-20T02:54:08.123Z,958.54
2019-03-20T02:55:08.035Z,958.53
2019-03-20T02:56:07.935Z,958.58
2019-03-20T02:57:07.818Z,958.57
2019-03-20T02:58:07.725Z,958.58
2019-03-20T02:59:07.610Z,958.52
2019-03-20T03:00:07.513Z,958.57
2019-03-20T03:01:07.529Z,958.55
2019-03-20T03:02:07.314Z,958.52
2019-03-20T03:03:07.200Z,958.58
2019-03-20T03:04:07.096Z,958.54
2019-03-20T03:05:06.995Z,958.56
2019-03-20T03:06:07.651Z,958.52
2019-03-20T03:07:06.799Z,958.53
2019-03-20T03:08:06.795Z,958.57
2019-03-20T03:09:06.589Z,958.57
2019-03-20T03:10:06.490Z,958.58
2019-03-20T03:11:06.392Z,958.57
2019-03-20T03:12:06.275Z,958.59
2019-03-20T03:13:06.171Z,958.57
2019-03-20T03:14:06.069Z,958.57
2019-03-20T03:15:06.067Z,958.56
2019-03-20T03:16:05.888Z,958.57
2019-03-20T03:17:05.755Z,958.58
2019-03-20T03:18:05.657Z,958.56
2019-03-20T03:19:05.562Z,958.58
2019-03-20T03:20:05.460Z,958.58
2019-03-20T03:21:05.360Z,958.54
2019-03-20T03:22:05.348Z,958.58
2019-03-20T03:23:05.142Z,958.58
2019-03-20T03:24:05.035Z,958.58
2019-03-20T03:25:04.933Z,958.59
2019-03-20T03:26:04.847Z,958.58
2019-03-20T03:27:04.726Z,958.63
2019-03-20T03:28:04.624Z,958.60
2019-03-20T03:29:04.627Z,958.64
2019-03-20T03:30:04.430Z,958.65
2019-03-20T03:31:04.329Z,958.67
2019-03-20T03:32:04.227Z,958.68
2019-03-20T03:33:04.125Z,958.71
2019-03-20T03:34:04.012Z,958.73
2019-03-20T03:35:03.903Z,958.70
2019-03-20T03:36:03.928Z,958.73
2019-03-20T03:37:03.702Z,958.73
2019-03-20T03:38:03.592Z,958.71
2019-03-20T03:39:03.486Z,958.75
2019-03-20T03:40:03.382Z,958.80
2019-03-20T03:41:03.309Z,958.78
2019-03-20T03:42:03.180Z,958.74
2019-03-20T03:43:03.177Z,958.76
2019-03-20T03:44:02.971Z,958.76
2019-03-20T03:45:02.869Z,958.77
2019-03-20T03:46:02.810Z,958.73
2019-03-20T03:47:02.660Z,958.70
2019-03-20T03:48:02.613Z,958.69
2019-03-20T03:49:02.454Z,958.68
2019-03-20T03:50:02.476Z,958.66
2019-03-20T03:51:02.268Z,958.65
2019-03-20T03:52:02.152Z,958.67
2019-03-20T03:53:02.039Z,958.66
2019-03-20T03:54:01.938Z,958.69
2019-03-20T03:55:01.930Z,958.74
2019-03-20T03:56:01.745Z,958.76
2019-03-20T03:57:01.726Z,958.75
2019-03-20T03:58:01.527Z,958.79
2019-03-20T03:59:01.423Z,958.78
2019-03-20T04:00:01.323Z,958.78
2019-03-20T04:01:01.231Z,958.83
2019-03-20T04:02:01.117Z,958.88
2019-03-20T04:03:01.008Z,958.89
2019-03-20T04:04:01.008Z,958.83
2019-03-20T04:05:00.801Z,958.89
2019-03-20T04:06:00.714Z,958.86
2019-03-20T04:07:00.592Z,958.92
2019-03-20T04:08:00.497Z,958.89
2019-03-20T04:09:00.384Z,958.94
2019-03-20T04:10:00.280Z,958.92
2019-03-20T04:11:00.194Z,958.90
2019-03-20T04:12:00.075Z,958.93
2019-03-20T04:12:59.976Z,958.93
2019-03-20T04:13:59.868Z,958.93
2019-03-20T04:14:59.767Z,958.96
2019-03-20T04:15:59.679Z,958.95
2019-03-20T04:16:59.559Z,958.96
2019-03-20T04:17:59.456Z,958.96
2019-03-20T04:18:59.353Z,958.93
2019-03-20T04:19:59.247Z,958.97
2019-03-20T04:20:59.165Z,958.95
2019-03-20T04:21:59.039Z,958.95
2019-03-20T04:22:58.936Z,958.98
2019-03-20T04:23:58.832Z,958.93
2019-03-20T04:24:58.730Z,958.92
2019-03-20T04:25:58.642Z,958.92
2019-03-20T04:26:58.549Z,958.91
2019-03-20T04:27:58.418Z,958.92
2019-03-20T04:28:58.316Z,958.92
2019-03-20T04:29:58.214Z,958.92
2019-03-20T04:30:58.120Z,958.94
2019-03-20T04:31:58.027Z,958.93
2019-03-20T04:32:57.901Z,958.94
2019-03-20T04:33:57.872Z,958.91
2019-03-20T04:34:57.695Z,958.96
2019-03-20T04:35:57.591Z,958.97
2019-03-20T04:36:57.505Z,958.93
2019-03-20T04:37:57.380Z,958.97
2019-03-20T04:38:57.281Z,958.97
2019-03-20T04:39:57.177Z,958.91
2019-03-20T04:40:57.077Z,958.97
2019-03-20T04:41:57.001Z,958.97
2019-03-20T04:42:56.863Z,958.97
2019-03-20T04:43:56.768Z,958.94
2019-03-20T04:44:56.659Z,959.01
2019-03-20T04:45:56.554Z,958.97
2019-03-20T04:46:56.465Z,958.98
2019-03-20T04:47:56.346Z,958.95
2019-03-20T04:48:56.242Z,958.98
2019-03-20T04:49:56.136Z,958.98
2019-03-20T04:50:56.061Z,958.97
2019-03-20T04:51:55.946Z,958.96
2019-03-20T04:52:55.827Z,958.95
2019-03-20T04:53:55.725Z,958.98
2019-03-20T04:54:55.621Z,959.01
2019-03-20T04:55:55.517Z,959.00
2019-03-20T04:56:55.431Z,958.96
2019-03-20T04:57:55.312Z,959.04
2019-03-20T04:58:55.204Z,959.06
2019-03-20T04:59:55.103Z,959.03
2019-03-20T05:00:55.016Z,959.05
2019-03-20T05:01:54.914Z,959.06
2019-03-20T05:02:54.788Z,959.11
2019-03-20T05:03:54.685Z,959.04
2019-03-20T05:04:54.585Z,959.06
2019-03-20T05:05:54.478Z,959.08
2019-03-20T05:06:58.793Z,959.05
2019-03-20T05:07:54.273Z,959.09
2019-03-20T05:08:54.833Z,959.10
2019-03-20T05:09:54.067Z,959.11
2019-03-20T05:10:53.962Z,959.13
2019-03-20T05:11:53.876Z,959.15
2019-03-20T05:12:53.756Z,959.15
2019-03-20T05:13:53.650Z,959.17
2019-03-20T05:14:53.553Z,959.18
2019-03-20T05:15:53.444Z,959.18
2019-03-20T05:16:53.353Z,959.23
2019-03-20T05:17:53.234Z,959.24
2019-03-20T05:18:53.130Z,959.27
2019-03-20T05:19:53.029Z,959.25
2019-03-20T05:20:52.924Z,959.27
2019-03-20T05:21:52.840Z,959.24
2019-03-20T05:22:52.715Z,959.28
2019-03-20T05:23:52.615Z,959.29
2019-03-20T05:24:52.506Z,959.28
2019-03-20T05:25:52.402Z,959.30
2019-03-20T05:26:52.322Z,959.30
2019-03-20T05:27:52.197Z,959.34
2019-03-20T05:28:52.094Z,959.31
2019-03-20T05:29:51.989Z,959.34
2019-03-20T05:30:51.885Z,959.34
2019-03-20T05:31:51.797Z,959.31
2019-03-20T05:32:51.677Z,959.35
2019-03-20T05:33:51.574Z,959.33
2019-03-20T05:34:51.471Z,959.31
2019-03-20T05:35:51.370Z,959.36
2019-03-20T05:36:51.283Z,959.36
2019-03-20T05:37:51.161Z,959.37
2019-03-20T05:38:51.055Z,959.41
2019-03-20T05:39:50.957Z,959.40
2019-03-20T05:40:50.857Z,959.45
2019-03-20T05:41:50.765Z,959.48
2019-03-20T05:42:50.645Z,959.52
2019-03-20T05:43:50.541Z,959.51
2019-03-20T05:44:50.433Z,959.53
2019-03-20T05:45:50.333Z,959.53
2019-03-20T05:46:50.246Z,959.55
2019-03-20T05:47:50.124Z,959.58
2019-03-20T05:48:50.123Z,959.62
2019-03-20T05:49:49.917Z,959.65
2019-03-20T05:50:49.818Z,959.65
2019-03-20T05:51:49.725Z,959.63
2019-03-20T05:52:49.608Z,959.67
2019-03-20T05:53:49.504Z,959.68
2019-03-20T05:54:49.407Z,959.70
2019-03-20T05:55:49.411Z,959.72
2019-03-20T05:56:49.209Z,959.74
2019-03-20T05:57:49.094Z,959.71
2019-03-20T05:58:48.986Z,959.77
2019-03-20T05:59:48.885Z,959.76
2019-03-20T06:00:48.780Z,959.75
2019-03-20T06:01:48.691Z,959.78
2019-03-20T06:02:48.679Z,959.78
2019-03-20T06:03:48.467Z,959.76
2019-03-20T06:04:48.375Z,959.81
2019-03-20T06:05:48.263Z,959.85
2019-03-20T06:06:48.164Z,959.87
2019-03-20T06:07:48.071Z,959.91
2019-03-20T06:08:47.950Z,959.89
2019-03-20T06:09:47.957Z,959.93
2019-03-20T06:10:47.744Z,959.95
2019-03-20T06:11:47.661Z,959.99
2019-03-20T06:12:47.539Z,960.02
2019-03-20T06:13:47.453Z,960.06
2019-03-20T06:14:47.332Z,960.11
2019-03-20T06:15:47.240Z,960.12
2019-03-20T06:16:47.234Z,960.15
2019-03-20T06:17:47.220Z,960.15
2019-03-20T06:18:46.925Z,960.17
2019-03-20T06:19:46.823Z,960.18
2019-03-20T06:20:46.721Z,960.21
2019-03-20T06:21:46.620Z,960.23
2019-03-20T06:22:46.536Z,960.24
2019-03-20T06:23:46.531Z,960.31
2019-03-20T06:24:46.314Z,960.33
2019-03-20T06:25:46.213Z,960.38
2019-03-20T06:26:46.115Z,960.38
2019-03-20T06:27:46.026Z,960.39
2019-03-20T06:28:45.911Z,960.45
2019-03-20T06:29:45.812Z,960.44
2019-03-20T06:30:45.820Z,960.47
2019-03-20T06:31:45.616Z,960.51
2019-03-20T06:32:45.527Z,960.50
2019-03-20T06:33:45.411Z,960.50
2019-03-20T06:34:45.313Z,960.53
2019-03-20T06:35:45.209Z,960.55
2019-03-20T06:36:45.114Z,960.58
2019-03-20T06:37:45.140Z,960.65
2019-03-20T06:38:44.917Z,960.68
2019-03-20T06:39:44.820Z,960.70
2019-03-20T06:40:44.720Z,960.77
2019-03-20T06:41:44.636Z,960.80
2019-03-20T06:42:44.542Z,960.79
2019-03-20T06:43:44.547Z,960.80
2019-03-20T06:44:44.319Z,960.87
2019-03-20T06:45:44.221Z,960.86
2019-03-20T06:46:44.126Z,960.91
2019-03-20T06:47:44.043Z,960.90
2019-03-20T06:48:43.941Z,960.91
2019-03-20T06:49:43.841Z,960.93
2019-03-20T06:50:43.736Z,960.97
2019-03-20T06:51:43.637Z,960.98
2019-03-20T06:52:43.556Z,960.94
2019-03-20T06:53:43.444Z,961.00
2019-03-20T06:54:43.353Z,961.03
2019-03-20T06:55:43.251Z,961.12
2019-03-20T06:56:43.152Z,961.15
2019-03-20T06:57:43.075Z,961.19
2019-03-20T06:58:42.962Z,961.20
2019-03-20T06:59:42.863Z,961.22
2019-03-20T07:00:42.772Z,961.21
2019-03-20T07:01:42.674Z,961.24
2019-03-20T07:02:42.593Z,961.24
2019-03-20T07:03:42.487Z,961.23
2019-03-20T07:04:42.386Z,961.22
2019-03-20T07:05:42.290Z,961.28
2019-03-20T07:06:42.195Z,961.31
2019-03-20T07:07:44.433Z,961.34
2019-03-20T07:08:42.008Z,961.36
2019-03-20T07:09:41.909Z,961.34
2019-03-20T07:10:41.816Z,961.39
2019-03-20T07:11:41.722Z,961.40
2019-03-20T07:12:41.638Z,961.40
2019-03-20T07:13:41.530Z,961.42
2019-03-20T07:14:41.443Z,961.45
2019-03-20T07:15:41.345Z,961.46
2019-03-20T07:16:41.248Z,961.51
2019-03-20T07:17:41.170Z,961.53
2019-03-20T07:18:41.060Z,961.56
2019-03-20T07:19:40.967Z,961.60
2019-03-20T07:20:40.871Z,961.59
2019-03-20T07:21:40.781Z,961.57
2019-03-20T07:22:40.704Z,961.60
2019-03-20T07:23:40.594Z,961.60
2019-03-20T07:24:40.500Z,961.62
2019-03-20T07:25:40.404Z,961.59
2019-03-20T07:26:40.328Z,961.65
2019-03-20T07:27:40.234Z,961.61
2019-03-20T07:28:40.125Z,961.58
2019-03-20T07:29:40.030Z,961.59
2019-03-20T07:30:39.942Z,961.62
2019-03-20T07:31:39.850Z,961.62
2019-03-20T07:32:39.771Z,961.67
2019-03-20T07:33:39.662Z,961.64
2019-03-20T07:34:39.574Z,961.67
2019-03-20T07:35:39.476Z,961.69
2019-03-20T07:36:39.385Z,961.66
2019-03-20T07:37:39.308Z,961.68
2019-03-20T07:38:39.199Z,961.68
2019-03-20T07:39:39.110Z,961.71
2019-03-20T07:40:39.016Z,961.75
2019-03-20T07:41:38.924Z,961.75
2019-03-20T07:42:38.851Z,961.75
2019-03-20T07:43:38.743Z,961.78
2019-03-20T07:44:38.649Z,961.82
2019-03-20T07:45:38.560Z,961.81
2019-03-20T07:46:38.470Z,961.80
2019-03-20T07:47:38.396Z,961.83
2019-03-20T07:48:40.616Z,961.82
2019-03-20T07:49:38.193Z,961.84
2019-03-20T07:50:38.102Z,961.78
2019-03-20T07:51:38.026Z,961.80
2019-03-20T07:52:37.936Z,961.79
2019-03-20T07:53:37.831Z,961.80
2019-03-20T07:54:37.741Z,961.78
2019-03-20T07:55:37.647Z,961.82
2019-03-20T07:56:37.554Z,961.87
2019-03-20T07:57:37.488Z,961.90
2019-03-20T07:58:37.375Z,961.90
2019-03-20T07:59:37.283Z,961.94
2019-03-20T08:00:37.295Z,961.90
2019-03-20T08:01:37.115Z,961.90
2019-03-20T08:02:37.012Z,961.83
2019-03-20T08:03:36.935Z,961.84
2019-03-20T08:04:36.832Z,961.84
2019-03-20T08:05:36.738Z,961.87
2019-03-20T08:06:36.647Z,961.87
2019-03-20T08:07:36.558Z,961.86
2019-03-20T08:08:36.487Z,961.85
2019-03-20T08:09:36.470Z,961.85
2019-03-20T08:10:36.288Z,961.85
2019-03-20T08:11:36.197Z,961.87
2019-03-20T08:12:36.106Z,961.89
2019-03-20T08:13:36.055Z,961.87
2019-03-20T08:14:36.031Z,961.87
2019-03-20T08:15:35.840Z,961.88
2019-03-20T08:16:35.749Z,961.93
2019-03-20T08:17:35.662Z,961.88
2019-03-20T08:18:35.589Z,961.91
2019-03-20T08:19:35.483Z,961.89
2019-03-20T08:20:35.394Z,961.88
2019-03-20T08:21:35.405Z,961.89
2019-03-20T08:22:35.213Z,961.89
2019-03-20T08:23:35.146Z,961.89
2019-03-20T08:24:35.033Z,961.89
2019-03-20T08:25:34.946Z,961.88
2019-03-20T08:26:34.856Z,961.86
2019-03-20T08:27:34.768Z,961.81
2019-03-20T08:28:34.806Z,961.80
2019-03-20T08:29:34.589Z,961.80
2019-03-20T08:30:34.500Z,961.80
2019-03-20T08:31:34.414Z,961.81
2019-03-20T08:32:34.321Z,961.80
2019-03-20T08:33:34.252Z,961.62
2019-03-20T08:34:34.144Z,961.88
2019-03-20T08:35:34.163Z,961.90
2019-03-20T08:36:33.965Z,961.89
2019-03-20T08:37:33.895Z,961.90
2019-03-20T08:38:33.803Z,961.89
2019-03-20T08:39:33.698Z,961.92
2019-03-20T08:40:33.610Z,961.94
2019-03-20T08:41:33.520Z,961.95
2019-03-20T08:42:33.553Z,961.97
2019-03-20T08:43:33.358Z,961.96
2019-03-20T08:44:33.250Z,961.93
2019-03-20T08:45:33.165Z,961.91
2019-03-20T08:46:33.074Z,961.89
2019-03-20T08:47:32.983Z,961.86
2019-03-20T08:48:32.912Z,961.91
2019-03-20T08:49:32.912Z,961.88
2019-03-20T08:50:32.717Z,961.94
2019-03-20T08:51:32.626Z,961.96
2019-03-20T08:52:32.540Z,961.97
2019-03-20T08:53:32.468Z,961.94
2019-03-20T08:54:32.361Z,961.96
2019-03-20T08:55:32.280Z,961.68
2019-03-20T08:56:32.287Z,961.97
2019-03-20T08:57:32.094Z,961.64
2019-03-20T08:58:32.026Z,961.54
2019-03-20T08:59:31.918Z,961.72
2019-03-20T09:00:31.831Z,961.57
2019-03-20T09:01:31.740Z,961.50
2019-03-20T09:02:31.651Z,961.64
2019-03-20T09:03:31.683Z,961.66
2019-03-20T09:04:31.472Z,961.93
2019-03-20T09:05:31.387Z,961.96
2019-03-20T09:06:31.295Z,961.87
2019-03-20T09:07:31.206Z,961.65
2019-03-20T09:08:31.130Z,961.82
2019-03-20T09:09:31.129Z,961.97
2019-03-20T09:10:30.932Z,962.05
2019-03-20T09:11:30.841Z,962.08
2019-03-20T09:12:30.750Z,962.09
2019-03-20T09:13:30.683Z,962.12
2019-03-20T09:14:30.570Z,962.10
2019-03-20T09:15:30.482Z,962.15
2019-03-20T09:16:30.401Z,962.12
2019-03-20T09:17:30.307Z,962.15
2019-03-20T09:18:30.228Z,962.14
2019-03-20T09:19:30.124Z,962.16
2019-03-20T09:20:30.030Z,962.13
2019-03-20T09:21:29.944Z,962.12
2019-03-20T09:22:29.854Z,962.11
2019-03-20T09:23:29.784Z,962.10
2019-03-20T09:24:29.673Z,962.07
2019-03-20T09:25:29.583Z,962.07
2019-03-20T09:26:29.499Z,962.13
2019-03-20T09:27:29.409Z,962.10
2019-03-20T09:28:29.336Z,962.15
2019-03-20T09:29:36.131Z,962.13
2019-03-20T09:30:29.145Z,962.15
2019-03-20T09:31:29.055Z,962.18
2019-03-20T09:32:28.966Z,962.21
2019-03-20T09:33:28.894Z,962.24
2019-03-20T09:34:28.789Z,962.22
2019-03-20T09:35:28.707Z,962.24
2019-03-20T09:36:28.613Z,962.25
2019-03-20T09:37:28.538Z,962.21
2019-03-20T09:38:28.453Z,962.28
2019-03-20T09:39:28.350Z,962.27
2019-03-20T09:40:28.265Z,962.25
2019-03-20T09:41:28.177Z,962.26
2019-03-20T09:42:28.089Z,962.28
2019-03-20T09:43:28.016Z,962.24
2019-03-20T09:44:27.909Z,962.18
2019-03-20T09:45:27.830Z,962.17
2019-03-20T09:46:27.736Z,962.17
2019-03-20T09:47:27.651Z,962.16
2019-03-20T09:48:27.564Z,962.21
2019-03-20T09:49:27.490Z,962.17
2019-03-20T09:50:27.396Z,962.17
2019-03-20T09:51:27.300Z,962.12
2019-03-20T09:52:27.215Z,962.12
2019-03-20T09:53:27.142Z,962.13
2019-03-20T09:54:27.038Z,962.15
2019-03-20T09:55:26.954Z,962.17
2019-03-20T09:56:26.865Z,962.16
2019-03-20T09:57:26.778Z,962.16
2019-03-20T09:58:26.693Z,962.15
2019-03-20T09:59:26.626Z,962.20
2019-03-20T10:00:26.530Z,962.17
2019-03-20T10:01:26.441Z,962.20
2019-03-20T10:02:26.347Z,962.17
2019-03-20T10:03:26.262Z,962.14
2019-03-20T10:04:26.186Z,962.15
2019-03-20T10:05:26.086Z,962.19
2019-03-20T10:06:26.001Z,962.20
2019-03-20T10:07:25.914Z,962.25
2019-03-20T10:08:25.836Z,962.24
2019-03-20T10:09:25.765Z,962.23
2019-03-20T10:10:25.654Z,962.28
2019-03-20T10:11:25.564Z,962.25
2019-03-20T10:12:25.478Z,962.23
2019-03-20T10:13:25.390Z,962.24
2019-03-20T10:14:25.322Z,962.26
2019-03-20T10:15:25.219Z,962.23
2019-03-20T10:16:25.129Z,962.29
2019-03-20T10:17:25.045Z,962.31
2019-03-20T10:18:24.963Z,962.32
2019-03-20T10:19:24.888Z,962.36
2019-03-20T10:20:24.785Z,962.33
2019-03-20T10:21:24.697Z,962.34
2019-03-20T10:22:24.609Z,962.41
2019-03-20T10:23:24.523Z,962.39
2019-03-20T10:24:24.455Z,962.47
2019-03-20T10:25:24.352Z,962.49
2019-03-20T10:26:24.269Z,962.46
2019-03-20T10:27:24.178Z,962.52
2019-03-20T10:28:24.088Z,962.56
2019-03-20T10:29:24.022Z,962.62
2019-03-20T10:30:23.915Z,962.67
2019-03-20T10:31:23.831Z,962.68
2019-03-20T10:32:23.740Z,962.66
2019-03-20T10:33:23.659Z,962.58
2019-03-20T10:34:23.585Z,962.61
2019-03-20T10:35:23.487Z,962.55
2019-03-20T10:36:23.394Z,962.60
2019-03-20T10:37:23.307Z,962.72
2019-03-20T10:38:23.222Z,962.66
2019-03-20T10:39:23.164Z,962.59
2019-03-20T10:40:23.052Z,962.72
2019-03-20T10:41:22.965Z,962.78
2019-03-20T10:42:22.891Z,962.73
2019-03-20T10:43:22.787Z,962.70
2019-03-20T10:44:22.724Z,962.76
2019-03-20T10:45:22.618Z,962.85
2019-03-20T10:46:22.591Z,962.83
2019-03-20T10:47:22.443Z,962.77
2019-03-20T10:48:22.363Z,962.72
2019-03-20T10:49:22.287Z,962.80
2019-03-20T10:50:22.217Z,962.89
2019-03-20T10:51:22.097Z,962.86
2019-03-20T10:52:22.008Z,962.86
2019-03-20T10:53:21.928Z,962.92
2019-03-20T10:54:21.851Z,963.02
2019-03-20T10:55:21.753Z,963.24
2019-03-20T10:56:21.663Z,963.03
2019-03-20T10:57:21.576Z,962.92
2019-03-20T10:58:21.491Z,962.93
2019-03-20T10:59:21.423Z,962.85
2019-03-20T11:00:21.326Z,962.70
2019-03-20T11:01:21.239Z,962.66
2019-03-20T11:02:21.147Z,962.76
2019-03-20T11:03:21.058Z,962.90
2019-03-20T11:04:20.987Z,962.98
2019-03-20T11:05:20.884Z,963.03
2019-03-20T11:06:20.797Z,963.00
2019-03-20T11:07:20.712Z,963.06
2019-03-20T11:08:20.626Z,963.24
2019-03-20T11:09:20.986Z,963.30
2019-03-20T11:10:20.455Z,963.14
2019-03-20T11:11:27.073Z,963.14
2019-03-20T11:12:20.281Z,963.20
2019-03-20T11:13:20.192Z,963.30
2019-03-20T11:14:20.128Z,963.31
2019-03-20T11:15:20.025Z,963.30
2019-03-20T11:16:19.933Z,963.20
2019-03-20T11:17:19.848Z,963.12
2019-03-20T11:18:19.775Z,963.18
2019-03-20T11:19:19.693Z,963.36
2019-03-20T11:20:19.590Z,963.22
2019-03-20T11:21:19.505Z,963.02
2019-03-20T11:22:19.422Z,963.18
2019-03-20T11:23:19.440Z,963.46
2019-03-20T11:24:19.264Z,963.40
2019-03-20T11:25:19.158Z,963.24
2019-03-20T11:26:19.072Z,963.19
2019-03-20T11:27:18.989Z,963.08
2019-03-20T11:28:18.900Z,963.03
2019-03-20T11:29:21.543Z,963.01
2019-03-20T11:30:18.838Z,963.07
2019-03-20T11:31:18.643Z,963.21
2019-03-20T11:32:18.558Z,963.27
2019-03-20T11:33:18.470Z,963.27
2019-03-20T11:34:18.399Z,963.36
2019-03-20T11:35:18.298Z,963.19
2019-03-20T11:36:18.213Z,962.93
2019-03-20T11:37:18.243Z,962.88
2019-03-20T11:38:18.046Z,962.79
2019-03-20T11:39:28.989Z,962.80
2019-03-20T11:40:17.883Z,962.75
2019-03-20T11:41:17.785Z,962.72
2019-03-20T11:42:17.698Z,962.76
2019-03-20T11:43:17.613Z,962.76
2019-03-20T11:44:17.526Z,962.76
2019-03-20T11:45:17.452Z,962.75
2019-03-20T11:46:17.350Z,962.76
2019-03-20T11:47:17.274Z,962.68
2019-03-20T11:48:17.195Z,962.59
2019-03-20T11:49:17.093Z,962.50
2019-03-20T11:50:17.025Z,962.48
2019-03-20T11:51:17.038Z,962.43
2019-03-20T11:52:16.832Z,962.35
2019-03-20T11:53:16.751Z,962.26
2019-03-20T11:54:16.660Z,962.19
2019-03-20T11:55:16.595Z,962.18
2019-03-20T11:56:16.492Z,962.14
2019-03-20T11:57:16.404Z,962.21
2019-03-20T11:58:16.425Z,962.23
2019-03-20T11:59:16.237Z,962.20
2019-03-20T12:00:16.160Z,962.13
2019-03-20T12:01:16.059Z,962.12
2019-03-20T12:02:27.424Z,961.99
2019-03-20T12:03:15.891Z,962.07
2019-03-20T12:04:15.799Z,961.98
2019-03-20T12:05:15.837Z,961.99
2019-03-20T12:06:15.632Z,961.98
2019-03-20T12:07:15.547Z,961.93
2019-03-20T12:08:15.464Z,961.93
2019-03-20T12:09:15.371Z,961.92
2019-03-20T12:10:15.301Z,961.88
2019-03-20T12:11:15.964Z,961.88
2019-03-20T12:12:15.110Z,961.88
2019-03-20T12:13:15.025Z,961.85
2019-03-20T12:14:14.941Z,961.85
2019-03-20T12:15:14.877Z,961.78
2019-03-20T12:16:14.769Z,961.76
2019-03-20T12:17:14.682Z,961.80
2019-03-20T12:18:14.597Z,961.78
2019-03-20T12:19:14.511Z,961.77
2019-03-20T12:20:14.440Z,961.80
2019-03-20T12:21:14.336Z,961.74
2019-03-20T12:22:14.251Z,961.69
2019-03-20T12:23:14.166Z,961.67
2019-03-20T12:24:14.080Z,961.63
2019-03-20T12:25:14.008Z,961.62
2019-03-20T12:26:13.908Z,961.60
2019-03-20T12:27:15.430Z,961.61